createdAt,value
2019-04-01T00:02:02.901Z,81.10
2019-04-01T00:04:04.597Z,81.30
2019-04-01T00:06:06.877Z,81.40
2019-04-01T00:08:08.673Z,81.20
2019-04-01T00:10:10.578Z,81.40
2019-04-01T00:12:12.312Z,81.20
2019-04-01T00:14:14.120Z,81.30
2019-04-01T00:16:15.817Z,81.50
2019-04-01T00:18:17.543Z,81.50
2019-04-01T00:20:19.248Z,81.60
2019-04-01T00:22:20.949Z,81.50
2019-04-01T00:24:22.664Z,81.40
2019-04-01T00:26:24.437Z,81.50
2019-04-01T00:28:26.205Z,81.50
2019-04-01T00:30:27.936Z,81.70
2019-04-01T00:32:29.650Z,81.70
2019-04-01T00:34:31.366Z,81.80
2019-04-01T00:36:33.082Z,81.60
2019-04-01T00:38:34.788Z,81.80
2019-04-01T00:40:36.501Z,81.80
2019-04-01T00:43:06.849Z,82.00
2019-04-01T00:45:11.344Z,82.00
2019-04-01T00:47:13.050Z,82.10
2019-04-01T00:49:14.760Z,82.10
2019-04-01T00:51:16.770Z,82.10
2019-04-01T00:53:18.732Z,82.20
2019-04-01T00:55:20.450Z,82.20
2019-04-01T00:57:22.160Z,82.30
2019-04-01T00:59:23.866Z,82.20
2019-04-01T01:01:25.667Z,82.40
2019-04-01T01:03:27.393Z,82.40
2019-04-01T01:05:29.089Z,82.50
2019-04-01T01:07:30.892Z,82.70
2019-04-01T01:09:32.604Z,82.80
2019-04-01T01:11:34.321Z,83.10
2019-04-01T01:13:36.033Z,83.10
2019-04-01T01:15:37.746Z,83.20
2019-04-01T01:17:39.467Z,83.20
2019-04-01T01:19:41.172Z,83.30
2019-04-01T01:21:43.455Z,83.40
2019-04-01T01:23:45.269Z,83.50
2019-04-01T01:25:46.978Z,83.60
2019-04-01T01:27:48.672Z,83.70
2019-04-01T01:29:50.404Z,84.00
2019-04-01T01:31:52.201Z,84.10
2019-04-01T01:33:54.008Z,84.20
2019-04-01T01:35:55.739Z,84.40
2019-04-01T01:37:57.465Z,84.50
2019-04-01T01:39:59.162Z,84.60
2019-04-01T01:42:00.876Z,84.80
2019-04-01T01:44:02.685Z,85.10
2019-04-01T01:46:04.385Z,85.20
2019-04-01T01:48:06.093Z,85.30
2019-04-01T01:50:08.004Z,85.50
2019-04-01T01:52:10.048Z,85.60
2019-04-01T01:54:11.745Z,85.50
2019-04-01T01:56:13.440Z,85.90
2019-04-01T01:58:15.168Z,86.00
2019-04-01T02:00:18.237Z,86.00
2019-04-01T02:02:19.930Z,86.10
2019-04-01T02:04:21.673Z,86.20
2019-04-01T02:06:23.569Z,86.60
2019-04-01T02:08:25.271Z,86.90
2019-04-01T02:10:27.025Z,87.10
2019-04-01T02:12:28.716Z,87.40
2019-04-01T02:14:30.420Z,87.70
2019-04-01T02:16:32.476Z,87.80
2019-04-01T02:18:34.268Z,88.30
2019-04-01T02:20:36.065Z,88.80
2019-04-01T02:22:37.784Z,88.70
2019-04-01T02:24:39.488Z,88.90
2019-04-01T02:26:41.176Z,89.00
2019-04-01T02:28:42.885Z,88.70
2019-04-01T02:30:44.573Z,89.30
2019-04-01T02:32:46.277Z,89.50
2019-04-01T02:34:48.261Z,89.60
2019-04-01T02:36:49.946Z,89.70
2019-04-01T02:38:51.652Z,89.80
2019-04-01T02:40:53.445Z,89.50
2019-04-01T02:42:55.245Z,89.60
2019-04-01T02:44:56.957Z,89.40
2019-04-01T02:46:58.649Z,89.80
2019-04-01T02:49:00.336Z,90.00
2019-04-01T02:51:02.039Z,90.30
2019-04-01T02:53:03.838Z,90.20
2019-04-01T02:55:06.783Z,90.30
2019-04-01T02:57:09.082Z,90.60
2019-04-01T02:59:10.863Z,90.40
2019-04-01T03:01:12.624Z,90.40
2019-04-01T03:03:14.392Z,90.40
2019-04-01T03:05:16.102Z,90.20
2019-04-01T03:07:17.818Z,90.30
2019-04-01T03:09:19.521Z,90.10
2019-04-01T03:11:21.206Z,90.20
2019-04-01T03:13:22.898Z,90.60
2019-04-01T03:15:24.615Z,91.00
2019-04-01T03:17:26.336Z,91.60
2019-04-01T03:19:28.114Z,91.60
2019-04-01T03:21:29.855Z,91.70
2019-04-01T03:23:31.548Z,91.70
2019-04-01T03:25:33.553Z,92.00
2019-04-01T03:27:35.380Z,92.30
2019-04-01T03:29:37.466Z,92.40
2019-04-01T03:31:39.166Z,92.90
2019-04-01T03:33:40.902Z,93.50
2019-04-01T03:35:42.771Z,94.90
2019-04-01T03:37:44.565Z,94.50
2019-04-01T03:39:46.309Z,92.70
2019-04-01T03:41:47.997Z,92.90
2019-04-01T03:43:49.810Z,93.20
2019-04-01T03:45:51.528Z,93.60
2019-04-01T03:47:53.283Z,93.60
2019-04-01T03:49:55.231Z,93.70
2019-04-01T03:51:56.913Z,93.90
2019-04-01T03:53:58.627Z,94.00
2019-04-01T03:56:00.336Z,93.90
2019-04-01T03:58:02.029Z,94.20
2019-04-01T04:00:04.405Z,94.70
2019-04-01T04:02:06.188Z,95.20
2019-04-01T04:04:08.194Z,95.20
2019-04-01T04:06:10.089Z,95.20
2019-04-01T04:08:11.830Z,95.40
2019-04-01T04:10:13.625Z,95.60
2019-04-01T04:12:15.356Z,95.60
2019-04-01T04:14:17.075Z,95.40
2019-04-01T04:16:18.762Z,95.40
2019-04-01T04:18:20.572Z,95.00
2019-04-01T04:20:22.273Z,95.60
2019-04-01T04:22:23.992Z,95.90
2019-04-01T04:24:25.693Z,96.70
2019-04-01T04:26:27.505Z,97.20
2019-04-01T04:28:29.288Z,97.30
2019-04-01T04:30:31.013Z,97.70
2019-04-01T04:32:32.713Z,97.70
2019-04-01T04:34:34.589Z,97.90
2019-04-01T04:36:36.313Z,97.70
2019-04-01T04:38:38.104Z,97.70
2019-04-01T04:40:41.049Z,98.20
2019-04-01T04:42:43.013Z,98.10
2019-04-01T04:44:44.716Z,98.20
2019-04-01T04:46:46.417Z,98.30
2019-04-01T04:48:48.322Z,97.60
2019-04-01T04:50:50.026Z,97.80
2019-04-01T04:52:51.744Z,98.30
2019-04-01T04:54:53.461Z,98.30
2019-04-01T04:56:55.156Z,98.30
2019-04-01T04:58:56.864Z,98.30
2019-04-01T05:00:58.563Z,97.80
2019-04-01T05:03:00.614Z,97.80
2019-04-01T05:05:02.829Z,97.90
2019-04-01T05:07:04.646Z,98.30
2019-04-01T05:09:06.349Z,98.30
2019-04-01T05:11:08.076Z,98.30
2019-04-01T05:13:09.915Z,98.30
2019-04-01T05:15:11.812Z,98.30
2019-04-01T05:17:13.923Z,98.30
2019-04-01T05:19:15.630Z,98.30
2019-04-01T05:21:17.999Z,98.30
2019-04-01T05:23:20.418Z,98.30
2019-04-01T05:25:22.543Z,98.30
2019-04-01T05:27:25.185Z,98.30
2019-04-01T05:29:29.240Z,98.30
2019-04-01T05:31:32.973Z,98.30
2019-04-01T05:33:37.308Z,98.30
2019-04-01T05:35:39.013Z,98.30
2019-04-01T05:37:41.085Z,98.30
2019-04-01T05:39:43.981Z,98.30
2019-04-01T05:41:45.821Z,98.30
2019-04-01T05:43:48.008Z,98.30
2019-04-01T05:45:49.720Z,98.30
2019-04-01T05:47:52.337Z,98.30
2019-04-01T05:49:54.059Z,98.30
2019-04-01T05:51:59.590Z,98.30
2019-04-01T05:54:01.411Z,98.30
2019-04-01T05:56:04.002Z,98.30
2019-04-01T05:58:05.797Z,98.30
2019-04-01T06:00:09.031Z,98.30
2019-04-01T06:02:10.925Z,98.30
2019-04-01T06:04:13.349Z,98.30
2019-04-01T06:06:15.144Z,98.30
2019-04-01T06:08:17.066Z,98.30
2019-04-01T06:10:18.759Z,98.30
2019-04-01T06:12:23.960Z,98.30
2019-04-01T06:14:24.176Z,98.30
2019-04-01T06:16:26.078Z,98.30
2019-04-01T06:18:27.889Z,98.30
2019-04-01T06:20:29.699Z,98.30
2019-04-01T06:22:31.989Z,97.70
2019-04-01T06:24:33.801Z,97.10
2019-04-01T06:26:36.111Z,98.00
2019-04-01T06:28:37.900Z,96.70
2019-04-01T06:30:39.692Z,96.30
2019-04-01T06:32:41.754Z,95.70
2019-04-01T06:34:52.694Z,95.80
2019-04-01T06:36:47.385Z,96.20
2019-04-01T06:38:49.302Z,95.60
2019-04-01T06:40:51.100Z,95.90
2019-04-01T06:42:53.138Z,95.20
2019-04-01T06:44:55.092Z,94.70
2019-04-01T06:46:57.432Z,93.60
2019-04-01T06:48:59.253Z,93.80
2019-04-01T06:51:01.045Z,93.50
2019-04-01T06:53:02.834Z,93.00
2019-04-01T06:55:04.880Z,93.20
2019-04-01T06:57:06.822Z,93.90
2019-04-01T06:59:08.757Z,93.70
2019-04-01T07:01:10.560Z,93.20
2019-04-01T07:03:12.367Z,92.30
2019-04-01T07:05:14.164Z,91.30
2019-04-01T07:07:19.322Z,91.70
2019-04-01T07:09:20.139Z,92.00
2019-04-01T07:11:21.956Z,91.00
2019-04-01T07:13:24.073Z,90.70
2019-04-01T07:15:26.069Z,89.60
2019-04-01T07:17:28.368Z,89.80
2019-04-01T07:19:30.352Z,89.20
2019-04-01T07:21:32.151Z,89.70
2019-04-01T07:23:33.958Z,88.90
2019-04-01T07:25:35.653Z,89.30
2019-04-01T07:27:37.597Z,89.80
2019-04-01T07:29:39.395Z,89.70
2019-04-01T07:31:41.103Z,88.40
2019-04-01T07:33:43.024Z,86.30
2019-04-01T07:35:46.698Z,85.20
2019-04-01T07:37:48.736Z,85.10
2019-04-01T07:39:50.757Z,83.20
2019-04-01T07:41:52.484Z,82.10
2019-04-01T07:43:54.293Z,80.90
2019-04-01T07:45:56.092Z,79.20
2019-04-01T07:47:57.796Z,79.80
2019-04-01T07:49:59.618Z,78.20
2019-04-01T07:52:01.609Z,77.70
2019-04-01T07:54:03.529Z,78.90
2019-04-01T07:56:05.473Z,78.40
2019-04-01T07:58:07.617Z,78.30
2019-04-01T08:00:09.525Z,78.20
2019-04-01T08:02:11.352Z,77.20
2019-04-01T08:04:13.162Z,76.50
2019-04-01T08:06:15.336Z,75.90
2019-04-01T08:08:17.250Z,75.90
2019-04-01T08:10:19.417Z,75.50
2019-04-01T08:12:21.208Z,76.00
2019-04-01T08:14:23.421Z,76.00
2019-04-01T08:16:25.233Z,76.20
2019-04-01T08:18:26.936Z,74.70
2019-04-01T08:20:28.737Z,73.60
2019-04-01T08:22:30.667Z,73.00
2019-04-01T08:24:32.560Z,73.30
2019-04-01T08:26:34.556Z,72.30
2019-04-01T08:28:36.661Z,70.60
2019-04-01T08:30:38.457Z,70.90
2019-04-01T08:32:40.411Z,71.50
2019-04-01T08:34:42.191Z,70.10
2019-04-01T08:36:44.046Z,70.90
2019-04-01T08:38:45.952Z,71.30
2019-04-01T08:40:47.681Z,71.10
2019-04-01T08:42:49.971Z,71.20
2019-04-01T08:44:51.782Z,69.80
2019-04-01T08:46:54.516Z,70.40
2019-04-01T08:48:56.216Z,69.20
2019-04-01T08:50:58.103Z,68.00
2019-04-01T08:52:59.913Z,68.70
2019-04-01T08:55:02.299Z,68.20
2019-04-01T08:57:04.092Z,68.60
2019-04-01T08:59:05.917Z,69.60
2019-04-01T09:01:07.616Z,70.00
2019-04-01T09:03:09.317Z,69.90
2019-04-01T09:05:11.228Z,69.20
2019-04-01T09:07:13.026Z,67.00
2019-04-01T09:09:14.813Z,67.90
2019-04-01T09:11:17.342Z,66.10
2019-04-01T09:13:19.642Z,67.20
2019-04-01T09:15:21.506Z,67.40
2019-04-01T09:17:23.431Z,66.10
2019-04-01T09:19:25.133Z,66.40
2019-04-01T09:21:26.921Z,67.20
2019-04-01T09:23:28.733Z,66.30
2019-04-01T09:25:30.431Z,65.40
2019-04-01T09:27:32.225Z,64.30
2019-04-01T09:29:33.939Z,65.40
2019-04-01T09:31:35.640Z,64.20
2019-04-01T09:33:37.430Z,64.10
2019-04-01T09:35:40.876Z,63.90
2019-04-01T09:37:42.825Z,64.10
2019-04-01T09:39:44.522Z,64.30
2019-04-01T09:41:46.517Z,64.50
2019-04-01T09:43:48.313Z,62.60
2019-04-01T09:45:50.115Z,64.00
2019-04-01T09:47:51.823Z,64.30
2019-04-01T09:49:53.541Z,64.40
2019-04-01T09:51:55.522Z,62.90
2019-04-01T09:53:57.217Z,63.60
2019-04-01T09:55:58.977Z,63.40
2019-04-01T09:58:00.991Z,63.70
2019-04-01T10:00:04.057Z,64.60
2019-04-01T10:02:06.218Z,62.90
2019-04-01T10:04:08.385Z,62.70
2019-04-01T10:06:10.556Z,62.10
2019-04-01T10:08:12.465Z,61.90
2019-04-01T10:10:14.396Z,61.30
2019-04-01T10:12:16.309Z,61.20
2019-04-01T10:14:18.008Z,61.10
2019-04-01T10:16:19.834Z,61.50
2019-04-01T10:18:21.525Z,62.30
2019-04-01T10:20:23.220Z,63.10
2019-04-01T10:22:25.181Z,62.60
2019-04-01T10:24:26.873Z,62.50
2019-04-01T10:26:28.568Z,61.90
2019-04-01T10:28:32.221Z,61.60
2019-04-01T10:30:34.115Z,61.00
2019-04-01T10:32:35.802Z,61.60
2019-04-01T10:34:37.502Z,62.20
2019-04-01T10:36:39.442Z,62.20
2019-04-01T10:38:41.233Z,60.50
2019-04-01T10:40:42.937Z,61.10
2019-04-01T10:42:44.763Z,62.00
2019-04-01T10:44:46.666Z,61.50
2019-04-01T10:46:48.411Z,59.70
2019-04-01T10:48:50.275Z,61.40
2019-04-01T10:50:52.056Z,62.00
2019-04-01T10:52:53.806Z,60.60
2019-04-01T10:54:55.643Z,59.30
2019-04-01T10:56:57.579Z,59.20
2019-04-01T10:58:59.341Z,59.70
2019-04-01T11:01:01.061Z,59.60
2019-04-01T11:03:06.006Z,59.80
2019-04-01T11:05:07.329Z,60.70
2019-04-01T11:07:09.139Z,59.50
2019-04-01T11:09:11.051Z,59.40
2019-04-01T11:11:12.917Z,58.20
2019-04-01T11:13:14.609Z,58.20
2019-04-01T11:15:17.503Z,57.90
2019-04-01T11:17:19.325Z,56.40
2019-04-01T11:19:21.126Z,55.80
2019-04-01T11:21:22.936Z,57.70
2019-04-01T11:23:24.646Z,57.50
2019-04-01T11:25:26.345Z,58.50
2019-04-01T11:27:28.309Z,58.00
2019-04-01T11:29:30.001Z,57.80
2019-04-01T11:31:31.686Z,57.00
2019-04-01T11:33:33.477Z,57.30
2019-04-01T11:35:35.252Z,56.90
2019-04-01T11:37:37.057Z,57.90
2019-04-01T11:39:38.783Z,58.60
2019-04-01T11:41:40.673Z,58.60
2019-04-01T11:43:42.388Z,56.80
2019-04-01T11:45:44.414Z,54.90
2019-04-01T11:47:46.340Z,52.90
2019-04-01T11:49:48.218Z,52.50
2019-04-01T11:51:50.032Z,54.50
2019-04-01T11:53:52.012Z,54.20
2019-04-01T11:55:53.697Z,54.90
2019-04-01T11:57:55.434Z,55.60
2019-04-01T11:59:57.318Z,55.10
2019-04-01T12:01:59.157Z,53.70
2019-04-01T12:04:00.963Z,54.40
2019-04-01T12:06:02.876Z,54.70
2019-04-01T12:08:04.584Z,55.30
2019-04-01T12:10:07.708Z,54.80
2019-04-01T12:12:22.927Z,54.20
2019-04-01T12:14:13.476Z,53.00
2019-04-01T12:16:15.257Z,52.40
2019-04-01T12:18:16.938Z,51.80
2019-04-01T12:20:18.755Z,51.20
2019-04-01T12:22:20.449Z,52.20
2019-04-01T12:24:22.132Z,50.50
2019-04-01T12:26:23.953Z,51.00
2019-04-01T12:28:25.850Z,52.40
2019-04-01T12:30:27.634Z,52.40
2019-04-01T12:32:29.433Z,52.00
2019-04-01T12:34:31.325Z,52.00
2019-04-01T12:36:33.533Z,52.10
2019-04-01T12:38:35.230Z,53.60
2019-04-01T12:40:36.920Z,51.30
2019-04-01T12:42:38.732Z,51.60
2019-04-01T12:44:41.372Z,51.40
2019-04-01T12:46:43.333Z,49.10
2019-04-01T12:48:45.031Z,49.60
2019-04-01T12:50:46.714Z,50.30
2019-04-01T12:52:48.430Z,50.10
2019-04-01T12:54:50.175Z,50.10
2019-04-01T12:56:51.926Z,49.20
2019-04-01T12:58:54.684Z,48.50
2019-04-01T13:00:56.689Z,47.70
2019-04-01T13:02:58.672Z,48.50
2019-04-01T13:05:00.370Z,47.90
2019-04-01T13:07:04.889Z,47.30
2019-04-01T13:09:06.469Z,47.90
2019-04-01T13:11:08.162Z,47.60
2019-04-01T13:13:12.864Z,47.70
2019-04-01T13:15:14.090Z,47.10
2019-04-01T13:17:15.870Z,47.30
2019-04-01T13:19:17.564Z,48.50
2019-04-01T13:21:19.290Z,48.40
2019-04-01T13:23:21.072Z,48.60
2019-04-01T13:25:22.764Z,49.70
2019-04-01T13:27:24.477Z,47.60
2019-04-01T13:29:26.180Z,47.40
2019-04-01T13:31:27.865Z,48.50
2019-04-01T13:33:29.646Z,47.70
2019-04-01T13:35:31.590Z,49.30
2019-04-01T13:37:33.305Z,46.90
2019-04-01T13:39:35.136Z,45.40
2019-04-01T13:41:42.595Z,45.50
2019-04-01T13:43:40.846Z,46.50
2019-04-01T13:45:42.536Z,45.90
2019-04-01T13:47:44.274Z,46.80
2019-04-01T13:49:45.980Z,46.50
2019-04-01T13:51:47.704Z,46.30
2019-04-01T13:53:49.470Z,46.00
2019-04-01T13:55:51.437Z,46.70
2019-04-01T13:57:53.171Z,47.10
2019-04-01T13:59:54.860Z,46.40
2019-04-01T14:01:57.126Z,46.30
2019-04-01T14:03:59.044Z,46.60
2019-04-01T14:06:01.552Z,46.70
2019-04-01T14:08:05.851Z,45.90
2019-04-01T14:10:07.289Z,46.90
2019-04-01T14:12:08.974Z,47.20
2019-04-01T14:14:10.911Z,47.60
2019-04-01T14:16:13.034Z,47.30
2019-04-01T14:18:15.145Z,46.20
2019-04-01T14:20:16.953Z,47.30
2019-04-01T14:22:20.162Z,47.30
2019-04-01T14:24:22.558Z,46.30
2019-04-01T14:26:24.995Z,45.90
2019-04-01T14:28:26.672Z,47.30
2019-04-01T14:30:28.470Z,48.20
2019-04-01T14:32:30.162Z,47.10
2019-04-01T14:34:32.149Z,45.80
2019-04-01T14:36:37.908Z,46.50
2019-04-01T14:38:40.625Z,47.70
2019-04-01T14:40:42.461Z,48.30
2019-04-01T14:42:46.508Z,46.90
2019-04-01T14:44:58.416Z,46.60
2019-04-01T14:47:00.386Z,45.50
2019-04-01T14:49:03.225Z,45.20
2019-04-01T14:51:06.617Z,46.10
2019-04-01T14:53:09.944Z,46.00
2019-04-01T14:55:12.000Z,46.50
2019-04-01T14:57:13.850Z,45.70
2019-04-01T14:59:15.525Z,45.40
2019-04-01T15:01:17.216Z,46.40
2019-04-01T15:03:19.032Z,45.20
2019-04-01T15:05:21.313Z,46.00
2019-04-01T15:07:23.006Z,44.10
2019-04-01T15:09:24.765Z,43.60
2019-04-01T15:11:26.466Z,44.70
2019-04-01T15:13:28.162Z,45.50
2019-04-01T15:15:31.441Z,46.30
2019-04-01T15:17:36.668Z,45.60
2019-04-01T15:19:36.777Z,46.10
2019-04-01T15:21:38.685Z,44.20
2019-04-01T15:23:40.477Z,43.50
2019-04-01T15:25:42.168Z,42.50
2019-04-01T15:27:43.877Z,45.10
2019-04-01T15:29:45.577Z,45.30
2019-04-01T15:31:47.289Z,45.40
2019-04-01T15:33:49.417Z,45.50
2019-04-01T15:35:51.992Z,44.30
2019-04-01T15:37:53.680Z,46.00
2019-04-01T15:39:55.494Z,47.60
2019-04-01T15:41:57.189Z,47.60
2019-04-01T15:43:58.873Z,49.00
2019-04-01T15:46:03.942Z,49.50
2019-04-01T15:48:04.304Z,48.90
2019-04-01T15:50:06.483Z,50.30
2019-04-01T15:52:08.305Z,51.40
2019-04-01T15:54:10.005Z,51.50
2019-04-01T15:56:11.712Z,51.90
2019-04-01T15:58:13.421Z,54.20
2019-04-01T16:00:19.247Z,54.10
2019-04-01T16:02:19.450Z,54.10
2019-04-01T16:04:21.245Z,54.20
2019-04-01T16:06:23.074Z,53.30
2019-04-01T16:08:25.249Z,50.80
2019-04-01T16:10:29.291Z,51.10
2019-04-01T16:12:30.874Z,51.00
2019-04-01T16:14:32.559Z,51.90
2019-04-01T16:16:34.299Z,52.40
2019-04-01T16:18:37.052Z,53.60
2019-04-01T16:20:38.759Z,54.20
2019-04-01T16:22:43.566Z,54.40
2019-04-01T16:24:44.991Z,55.20
2019-04-01T16:26:47.126Z,56.20
2019-04-01T16:28:49.187Z,56.20
2019-04-01T16:30:51.056Z,56.00
2019-04-01T16:32:52.874Z,55.70
2019-04-01T16:34:54.564Z,55.60
2019-04-01T16:36:56.262Z,56.20
2019-04-01T16:38:58.097Z,56.20
2019-04-01T16:40:59.797Z,56.50
2019-04-01T16:43:01.493Z,56.80
2019-04-01T16:45:05.921Z,57.20
2019-04-01T16:47:07.714Z,56.80
2019-04-01T16:49:09.569Z,57.40
2019-04-01T16:51:11.299Z,56.90
2019-04-01T16:53:12.996Z,56.90
2019-04-01T16:55:18.030Z,56.80
2019-04-01T16:57:18.748Z,54.80
2019-04-01T16:59:20.438Z,54.90
2019-04-01T17:01:23.194Z,54.60
2019-04-01T17:03:25.236Z,54.20
2019-04-01T17:05:31.818Z,54.20
2019-04-01T17:07:33.715Z,54.60
2019-04-01T17:09:36.009Z,55.20
2019-04-01T17:11:37.808Z,55.20
2019-04-01T17:13:39.810Z,54.90
2019-04-01T17:15:41.698Z,55.10
2019-04-01T17:17:43.599Z,55.00
2019-04-01T17:19:45.309Z,55.50
2019-04-01T17:21:47.108Z,55.20
2019-04-01T17:23:48.831Z,55.50
2019-04-01T17:25:50.969Z,55.50
2019-04-01T17:27:52.660Z,56.00
2019-04-01T17:29:54.582Z,55.70
2019-04-01T17:31:56.293Z,54.20
2019-04-01T17:33:58.245Z,54.20
2019-04-01T17:36:00.040Z,54.30
2019-04-01T17:38:01.854Z,54.50
2019-04-01T17:40:04.897Z,54.90
2019-04-01T17:42:06.904Z,55.00
2019-04-01T17:44:08.765Z,54.90
2019-04-01T17:46:10.694Z,54.70
2019-04-01T17:48:12.374Z,55.10
2019-04-01T17:50:14.174Z,55.30
2019-04-01T17:52:16.236Z,55.80
2019-04-01T17:54:19.007Z,56.00
2019-04-01T17:56:21.053Z,56.40
2019-04-01T17:58:22.742Z,56.60
2019-04-01T18:00:26.162Z,56.80
2019-04-01T18:02:29.473Z,57.10
2019-04-01T18:04:31.434Z,57.30
2019-04-01T18:06:33.350Z,57.50
2019-04-01T18:08:35.041Z,57.80
2019-04-01T18:10:36.761Z,57.60
2019-04-01T18:12:38.542Z,57.90
2019-04-01T18:14:40.241Z,57.50
2019-04-01T18:16:43.073Z,57.40
2019-04-01T18:18:45.245Z,57.50
2019-04-01T18:20:46.948Z,58.00
2019-04-01T18:22:48.841Z,57.80
2019-04-01T18:24:51.179Z,57.70
2019-04-01T18:26:53.786Z,57.40
2019-04-01T18:28:55.873Z,57.60
2019-04-01T18:30:57.565Z,57.60
2019-04-01T18:33:00.011Z,57.90
2019-04-01T18:35:04.035Z,57.90
2019-04-01T18:37:06.274Z,58.30
2019-04-01T18:39:08.637Z,58.40
2019-04-01T18:41:10.435Z,58.50
2019-04-01T18:43:12.244Z,58.40
2019-04-01T18:45:14.152Z,58.60
2019-04-01T18:47:15.868Z,58.70
2019-04-01T18:49:17.675Z,58.60
2019-04-01T18:51:20.545Z,59.00
2019-04-01T18:53:22.359Z,59.20
2019-04-01T18:55:24.088Z,59.20
2019-04-01T18:57:27.192Z,59.40
2019-04-01T18:59:29.193Z,59.50
2019-04-01T19:01:30.882Z,59.60
2019-04-01T19:03:32.686Z,59.40
2019-04-01T19:05:34.391Z,59.90
2019-04-01T19:07:36.097Z,60.10
2019-04-01T19:09:38.729Z,60.20
2019-04-01T19:11:43.328Z,60.20
2019-04-01T19:13:44.146Z,60.30
2019-04-01T19:15:46.105Z,60.40
2019-04-01T19:17:48.790Z,60.60
2019-04-01T19:19:50.578Z,60.80
2019-04-01T19:21:52.290Z,60.70
2019-04-01T19:23:53.998Z,61.10
2019-04-01T19:25:55.688Z,61.10
2019-04-01T19:27:57.587Z,61.20
2019-04-01T19:29:59.281Z,61.30
2019-04-01T19:32:00.977Z,61.20
2019-04-01T19:34:03.057Z,61.10
2019-04-01T19:36:04.749Z,61.20
2019-04-01T19:38:07.363Z,61.50
2019-04-01T19:40:11.457Z,61.70
2019-04-01T19:42:13.283Z,61.80
2019-04-01T19:44:14.974Z,62.00
2019-04-01T19:46:16.726Z,62.20
2019-04-01T19:48:18.450Z,62.50
2019-04-01T19:50:20.559Z,62.50
2019-04-01T19:52:22.259Z,62.70
2019-04-01T19:54:31.118Z,62.80
2019-04-01T19:56:27.556Z,63.20
2019-04-01T19:58:29.247Z,63.40
2019-04-01T20:00:31.122Z,63.70
2019-04-01T20:02:34.257Z,63.90
2019-04-01T20:04:36.250Z,63.70
2019-04-01T20:06:40.657Z,64.20
2019-04-01T20:08:41.852Z,63.90
2019-04-01T20:10:43.547Z,63.70
2019-04-01T20:12:45.369Z,64.00
2019-04-01T20:14:47.165Z,64.10
2019-04-01T20:16:48.918Z,64.20
2019-04-01T20:18:50.653Z,64.50
2019-04-01T20:20:52.353Z,64.30
2019-04-01T20:22:54.499Z,64.60
2019-04-01T20:24:56.313Z,64.70
2019-04-01T20:26:58.076Z,64.70
2019-04-01T20:29:00.152Z,64.90
2019-04-01T20:31:01.845Z,65.00
2019-04-01T20:33:16.558Z,65.20
2019-04-01T20:35:07.655Z,65.10
2019-04-01T20:37:09.388Z,65.20
2019-04-01T20:39:11.408Z,65.30
2019-04-01T20:41:13.120Z,65.70
2019-04-01T20:43:15.356Z,65.80
2019-04-01T20:45:17.519Z,65.70
2019-04-01T20:47:19.277Z,65.50
2019-04-01T20:49:20.993Z,65.80
2019-04-01T20:51:22.728Z,66.20
2019-04-01T20:53:24.420Z,66.10
2019-04-01T20:55:26.219Z,66.10
2019-04-01T20:57:28.349Z,66.10
2019-04-01T20:59:30.042Z,66.40
2019-04-01T21:01:31.748Z,66.10
2019-04-01T21:03:33.569Z,66.20
2019-04-01T21:05:35.268Z,66.30
2019-04-01T21:07:36.974Z,66.20
2019-04-01T21:09:39.109Z,66.50
2019-04-01T21:11:41.027Z,66.50
2019-04-01T21:13:43.394Z,66.50
2019-04-01T21:15:45.106Z,66.80
2019-04-01T21:17:46.906Z,66.80
2019-04-01T21:19:48.608Z,66.90
2019-04-01T21:21:50.311Z,67.20
2019-04-01T21:23:52.289Z,67.20
2019-04-01T21:25:54.081Z,67.30
2019-04-01T21:27:55.819Z,67.10
2019-04-01T21:29:57.517Z,67.40
2019-04-01T21:31:59.436Z,67.70
2019-04-01T21:34:01.229Z,67.70
2019-04-01T21:36:03.246Z,67.80
2019-04-01T21:38:05.589Z,67.90
2019-04-01T21:40:07.801Z,68.20
2019-04-01T21:42:09.597Z,67.80
2019-04-01T21:44:11.718Z,68.00
2019-04-01T21:46:14.177Z,68.00
2019-04-01T21:48:16.454Z,68.20
2019-04-01T21:50:18.361Z,68.20
2019-04-01T21:52:20.155Z,68.40
2019-04-01T21:54:21.857Z,68.50
2019-04-01T21:56:23.723Z,68.60
2019-04-01T21:58:25.437Z,68.70
2019-04-01T22:00:45.714Z,69.00
2019-04-01T22:02:47.445Z,68.90
2019-04-01T22:04:49.146Z,69.10
2019-04-01T22:06:50.969Z,68.90
2019-04-01T22:08:52.756Z,69.30
2019-04-01T22:10:54.553Z,69.50
2019-04-01T22:12:56.802Z,69.90
2019-04-01T22:14:58.740Z,69.80
2019-04-01T22:17:00.460Z,69.70
2019-04-01T22:19:02.178Z,69.80
2019-04-01T22:21:03.872Z,69.90
2019-04-01T22:23:06.273Z,70.00
2019-04-01T22:25:08.587Z,70.20
2019-04-01T22:27:10.278Z,70.70
2019-04-01T22:29:12.109Z,70.80
2019-04-01T22:31:15.180Z,70.80
2019-04-01T22:33:17.092Z,70.40
2019-04-01T22:35:18.921Z,70.90
2019-04-01T22:37:27.091Z,70.80
2019-04-01T22:39:27.177Z,71.00
2019-04-01T22:41:29.197Z,70.90
2019-04-01T22:43:31.024Z,71.00
2019-04-01T22:45:32.747Z,71.10
2019-04-01T22:47:34.649Z,71.20
2019-04-01T22:49:36.454Z,71.00
2019-04-01T22:51:38.180Z,71.20
2019-04-01T22:53:39.876Z,71.50
2019-04-01T22:55:41.589Z,71.40
2019-04-01T22:57:43.321Z,71.50
2019-04-01T22:59:45.014Z,71.60
2019-04-01T23:01:46.721Z,71.60
2019-04-01T23:03:48.449Z,71.80
2019-04-01T23:05:50.150Z,71.70
2019-04-01T23:07:51.854Z,71.80
2019-04-01T23:09:53.550Z,72.30
2019-04-01T23:11:55.252Z,72.20
2019-04-01T23:13:57.065Z,71.80
2019-04-01T23:16:00.325Z,72.30
2019-04-01T23:18:02.304Z,72.40
2019-04-01T23:20:04.573Z,72.40
2019-04-01T23:22:06.377Z,72.10
2019-04-01T23:24:08.090Z,72.10
2019-04-01T23:26:09.788Z,71.80
2019-04-01T23:28:11.510Z,71.40
2019-04-01T23:30:13.432Z,71.50
2019-04-01T23:32:16.256Z,71.50
2019-04-01T23:34:18.431Z,71.60
2019-04-01T23:36:20.133Z,71.50
2019-04-01T23:38:21.961Z,71.60
2019-04-01T23:40:23.657Z,71.60
2019-04-01T23:42:25.651Z,71.40
2019-04-01T23:44:27.376Z,71.30
2019-04-01T23:46:29.073Z,71.30
2019-04-01T23:48:30.781Z,71.30
2019-04-01T23:50:32.793Z,71.20
2019-04-01T23:52:34.500Z,71.40
2019-04-01T23:54:36.196Z,71.50
2019-04-01T23:56:37.904Z,71.10
2019-04-01T23:58:39.709Z,71.10
